sensor_id;sensor_type;location;lat;lon;timestamp;temperature;humidity
21648;DHT22;10985;54.182;7.890;2023-05-10T00:01:57;12.30;99.90
21648;DHT22;10985;54.182;7.890;2023-05-10T00:04:23;12.30;99.90
21648;DHT22;10985;54.182;7.890;2023-05-10T00:06:52;12.30;99.90
21648;DHT22;10985;54.182;7.890;2023-05-10T00:09:18;12.30;99.90
21648;DHT22;10985;54.182;7.890;2023-05-10T00:11:43;12.30;99.90
21648;DHT22;10985;54.182;7.890;2023-05-10T00:14:09;12.30;99.90
21648;DHT22;10985;54.182;7.890;2023-05-10T00:16:34;12.30;99.90
21648;DHT22;10985;54.182;7.890;2023-05-10T00:19:00;12.30;99.90
21648;DHT22;10985;54.182;7.890;2023-05-10T00:21:25;12.30;99.90
21648;DHT22;10985;54.182;7.890;2023-05-10T00:23:53;12.30;99.90
21648;DHT22;10985;54.182;7.890;2023-05-10T00:26:19;12.30;99.90
21648;DHT22;10985;54.182;7.890;2023-05-10T00:28:45;12.40;99.90
21648;DHT22;10985;54.182;7.890;2023-05-10T00:31:10;12.40;99.90
21648;DHT22;10985;54.182;7.890;2023-05-10T00:33:36;12.40;99.90
21648;DHT22;10985;54.182;7.890;2023-05-10T00:36:01;12.40;99.90
21648;DHT22;10985;54.182;7.890;2023-05-10T00:38:27;12.40;99.90
21648;DHT22;10985;54.182;7.890;2023-05-10T00:40:52;12.50;99.90
21648;DHT22;10985;54.182;7.890;2023-05-10T00:43:18;12.50;99.90
21648;DHT22;10985;54.182;7.890;2023-05-10T00:45:43;12.50;99.90
21648;DHT22;10985;54.182;7.890;2023-05-10T00:48:09;12.50;99.90
21648;DHT22;10985;54.182;7.890;2023-05-10T00:50:35;12.60;99.90
21648;DHT22;10985;54.182;7.890;2023-05-10T00:53:01;12.60;99.90
21648;DHT22;10985;54.182;7.890;2023-05-10T00:55:27;12.60;99.90
21648;DHT22;10985;54.182;7.890;2023-05-10T00:57:53;12.60;99.90
21648;DHT22;10985;54.182;7.890;2023-05-10T01:00:19;12.50;99.90
21648;DHT22;10985;54.182;7.890;2023-05-10T01:02:46;12.60;99.90
21648;DHT22;10985;54.182;7.890;2023-05-10T01:05:12;12.60;99.90
21648;DHT22;10985;54.182;7.890;2023-05-10T01:07:38;12.60;99.90
21648;DHT22;10985;54.182;7.890;2023-05-10T01:10:05;12.60;99.90
21648;DHT22;10985;54.182;7.890;2023-05-10T01:12:32;12.60;99.90
21648;DHT22;10985;54.182;7.890;2023-05-10T01:14:57;12.60;99.90
21648;DHT22;10985;54.182;7.890;2023-05-10T01:17:23;12.60;99.90
21648;DHT22;10985;54.182;7.890;2023-05-10T01:19:49;12.60;99.90
21648;DHT22;10985;54.182;7.890;2023-05-10T01:22:48;12.60;99.90
21648;DHT22;10985;54.182;7.890;2023-05-10T01:33:25;12.70;99.90
21648;DHT22;10985;54.182;7.890;2023-05-10T01:36:02;12.70;99.90
21648;DHT22;10985;54.182;7.890;2023-05-10T01:38:38;12.80;99.90
21648;DHT22;10985;54.182;7.890;2023-05-10T01:41:13;12.80;99.90
21648;DHT22;10985;54.182;7.890;2023-05-10T01:43:52;12.80;99.90
21648;DHT22;10985;54.182;7.890;2023-05-10T01:46:25;12.80;99.90
21648;DHT22;10985;54.182;7.890;2023-05-10T01:48:55;12.80;99.90
21648;DHT22;10985;54.182;7.890;2023-05-10T01:51:23;12.80;99.90
21648;DHT22;10985;54.182;7.890;2023-05-10T01:53:51;12.90;99.90
21648;DHT22;10985;54.182;7.890;2023-05-10T01:56:19;12.90;99.90
21648;DHT22;10985;54.182;7.890;2023-05-10T01:58:48;12.80;99.90
21648;DHT22;10985;54.182;7.890;2023-05-10T02:01:15;12.70;99.90
21648;DHT22;10985;54.182;7.890;2023-05-10T02:03:42;12.70;99.90
21648;DHT22;10985;54.182;7.890;2023-05-10T02:06:10;12.60;99.90
21648;DHT22;10985;54.182;7.890;2023-05-10T02:08:38;12.50;99.90
21648;DHT22;10985;54.182;7.890;2023-05-10T02:11:05;12.50;99.90
21648;DHT22;10985;54.182;7.890;2023-05-10T02:13:33;12.40;99.90
21648;DHT22;10985;54.182;7.890;2023-05-10T02:15:59;12.40;99.90
21648;DHT22;10985;54.182;7.890;2023-05-10T02:18:27;12.40;99.90
21648;DHT22;10985;54.182;7.890;2023-05-10T02:20:54;12.30;99.90
21648;DHT22;10985;54.182;7.890;2023-05-10T02:23:20;12.30;99.90
21648;DHT22;10985;54.182;7.890;2023-05-10T02:25:48;12.30;99.90
21648;DHT22;10985;54.182;7.890;2023-05-10T02:28:15;12.40;99.90
21648;DHT22;10985;54.182;7.890;2023-05-10T02:30:41;12.40;99.90
21648;DHT22;10985;54.182;7.890;2023-05-10T02:33:08;12.40;99.90
21648;DHT22;10985;54.182;7.890;2023-05-10T02:35:34;12.40;99.90
21648;DHT22;10985;54.182;7.890;2023-05-10T02:38:00;12.40;99.90
21648;DHT22;10985;54.182;7.890;2023-05-10T02:40:27;12.40;99.90
21648;DHT22;10985;54.182;7.890;2023-05-10T02:42:55;12.50;99.90
21648;DHT22;10985;54.182;7.890;2023-05-10T02:45:24;12.50;99.90
21648;DHT22;10985;54.182;7.890;2023-05-10T02:47:52;12.50;99.90
21648;DHT22;10985;54.182;7.890;2023-05-10T02:50:18;12.50;99.90
21648;DHT22;10985;54.182;7.890;2023-05-10T02:52:50;12.50;99.90
21648;DHT22;10985;54.182;7.890;2023-05-10T02:55:21;12.50;99.90
21648;DHT22;10985;54.182;7.890;2023-05-10T02:57:58;12.50;99.90
21648;DHT22;10985;54.182;7.890;2023-05-10T03:00:24;12.50;99.90
21648;DHT22;10985;54.182;7.890;2023-05-10T03:02:50;12.50;99.90
21648;DHT22;10985;54.182;7.890;2023-05-10T03:05:16;12.50;99.90
21648;DHT22;10985;54.182;7.890;2023-05-10T03:07:42;12.40;99.90
21648;DHT22;10985;54.182;7.890;2023-05-10T03:10:08;12.50;99.90
21648;DHT22;10985;54.182;7.890;2023-05-10T03:13:13;12.40;99.90
21648;DHT22;10985;54.182;7.890;2023-05-10T03:16:12;12.50;99.90
21648;DHT22;10985;54.182;7.890;2023-05-10T03:21:07;12.50;99.90
21648;DHT22;10985;54.182;7.890;2023-05-10T03:23:46;12.40;99.90
21648;DHT22;10985;54.182;7.890;2023-05-10T03:26:17;12.40;99.90
21648;DHT22;10985;54.182;7.890;2023-05-10T03:28:47;12.40;99.90
21648;DHT22;10985;54.182;7.890;2023-05-10T03:31:14;12.40;99.90
21648;DHT22;10985;54.182;7.890;2023-05-10T03:33:47;12.40;99.90
21648;DHT22;10985;54.182;7.890;2023-05-10T03:36:12;12.30;99.90
21648;DHT22;10985;54.182;7.890;2023-05-10T03:38:38;12.30;99.90
21648;DHT22;10985;54.182;7.890;2023-05-10T03:41:04;12.30;99.90
21648;DHT22;10985;54.182;7.890;2023-05-10T03:43:29;12.20;99.90
21648;DHT22;10985;54.182;7.890;2023-05-10T03:45:54;12.20;99.90
21648;DHT22;10985;54.182;7.890;2023-05-10T03:48:20;12.20;99.90
21648;DHT22;10985;54.182;7.890;2023-05-10T03:50:45;12.10;99.90
21648;DHT22;10985;54.182;7.890;2023-05-10T03:53:11;12.00;99.90
21648;DHT22;10985;54.182;7.890;2023-05-10T03:55:37;12.00;99.90
21648;DHT22;10985;54.182;7.890;2023-05-10T03:58:03;12.00;99.90
21648;DHT22;10985;54.182;7.890;2023-05-10T04:00:28;12.00;99.90
21648;DHT22;10985;54.182;7.890;2023-05-10T04:02:54;12.00;99.90
21648;DHT22;10985;54.182;7.890;2023-05-10T04:05:19;12.00;99.90
21648;DHT22;10985;54.182;7.890;2023-05-10T04:07:45;11.90;99.90
21648;DHT22;10985;54.182;7.890;2023-05-10T04:10:12;12.00;99.90
21648;DHT22;10985;54.182;7.890;2023-05-10T04:12:37;12.00;99.90
21648;DHT22;10985;54.182;7.890;2023-05-10T04:15:03;12.00;99.90
21648;DHT22;10985;54.182;7.890;2023-05-10T04:17:29;12.00;99.90
21648;DHT22;10985;54.182;7.890;2023-05-10T04:19:55;12.00;99.90
21648;DHT22;10985;54.182;7.890;2023-05-10T04:22:21;12.00;99.90
21648;DHT22;10985;54.182;7.890;2023-05-10T04:24:46;12.00;99.90
21648;DHT22;10985;54.182;7.890;2023-05-10T04:27:12;12.00;99.90
21648;DHT22;10985;54.182;7.890;2023-05-10T04:29:37;12.00;99.90
21648;DHT22;10985;54.182;7.890;2023-05-10T04:32:03;12.00;99.90
21648;DHT22;10985;54.182;7.890;2023-05-10T04:34:29;12.00;99.90
21648;DHT22;10985;54.182;7.890;2023-05-10T04:36:54;12.00;99.90
21648;DHT22;10985;54.182;7.890;2023-05-10T04:39:20;12.00;99.90
21648;DHT22;10985;54.182;7.890;2023-05-10T04:41:46;12.00;99.90
21648;DHT22;10985;54.182;7.890;2023-05-10T04:44:11;12.00;99.90
21648;DHT22;10985;54.182;7.890;2023-05-10T04:46:37;11.90;99.90
21648;DHT22;10985;54.182;7.890;2023-05-10T04:49:02;12.00;99.90
21648;DHT22;10985;54.182;7.890;2023-05-10T04:51:28;12.00;99.90
21648;DHT22;10985;54.182;7.890;2023-05-10T04:53:53;11.90;99.90
21648;DHT22;10985;54.182;7.890;2023-05-10T04:56:19;11.90;99.90
21648;DHT22;10985;54.182;7.890;2023-05-10T04:58:44;11.90;99.90
21648;DHT22;10985;54.182;7.890;2023-05-10T05:01:10;11.90;99.90
21648;DHT22;10985;54.182;7.890;2023-05-10T05:03:36;12.00;99.90
21648;DHT22;10985;54.182;7.890;2023-05-10T05:06:02;11.90;99.90
21648;DHT22;10985;54.182;7.890;2023-05-10T05:08:27;12.00;99.90
21648;DHT22;10985;54.182;7.890;2023-05-10T05:10:53;12.00;99.90
21648;DHT22;10985;54.182;7.890;2023-05-10T05:13:18;12.00;99.90
21648;DHT22;10985;54.182;7.890;2023-05-10T05:15:44;12.00;99.90
21648;DHT22;10985;54.182;7.890;2023-05-10T05:18:09;11.90;99.90
21648;DHT22;10985;54.182;7.890;2023-05-10T05:20:35;11.90;99.90
21648;DHT22;10985;54.182;7.890;2023-05-10T05:23:01;11.90;99.90
21648;DHT22;10985;54.182;7.890;2023-05-10T05:25:26;11.90;99.90
21648;DHT22;10985;54.182;7.890;2023-05-10T05:27:52;11.90;99.90
21648;DHT22;10985;54.182;7.890;2023-05-10T05:30:17;11.90;99.90
21648;DHT22;10985;54.182;7.890;2023-05-10T05:32:43;11.90;99.90
21648;DHT22;10985;54.182;7.890;2023-05-10T05:35:09;12.00;99.90
21648;DHT22;10985;54.182;7.890;2023-05-10T05:37:35;12.00;99.90
21648;DHT22;10985;54.182;7.890;2023-05-10T05:40:00;12.00;99.90
21648;DHT22;10985;54.182;7.890;2023-05-10T05:42:27;12.00;99.90
21648;DHT22;10985;54.182;7.890;2023-05-10T05:44:52;12.00;99.90
21648;DHT22;10985;54.182;7.890;2023-05-10T05:47:18;12.00;99.90
21648;DHT22;10985;54.182;7.890;2023-05-10T05:49:43;12.00;99.90
21648;DHT22;10985;54.182;7.890;2023-05-10T05:52:11;12.00;99.90
21648;DHT22;10985;54.182;7.890;2023-05-10T05:54:37;12.00;99.90
21648;DHT22;10985;54.182;7.890;2023-05-10T05:57:02;12.00;99.90
21648;DHT22;10985;54.182;7.890;2023-05-10T05:59:28;12.10;99.90
21648;DHT22;10985;54.182;7.890;2023-05-10T06:01:53;12.00;99.90
21648;DHT22;10985;54.182;7.890;2023-05-10T06:04:19;11.90;99.90
21648;DHT22;10985;54.182;7.890;2023-05-10T06:06:44;12.00;99.90
21648;DHT22;10985;54.182;7.890;2023-05-10T06:09:10;12.00;99.90
21648;DHT22;10985;54.182;7.890;2023-05-10T06:11:36;12.00;99.90
21648;DHT22;10985;54.182;7.890;2023-05-10T06:14:03;12.00;99.90
21648;DHT22;10985;54.182;7.890;2023-05-10T06:16:30;12.00;99.90
21648;DHT22;10985;54.182;7.890;2023-05-10T06:18:56;12.00;99.90
21648;DHT22;10985;54.182;7.890;2023-05-10T06:21:22;12.00;99.90
21648;DHT22;10985;54.182;7.890;2023-05-10T06:23:47;12.00;99.90
21648;DHT22;10985;54.182;7.890;2023-05-10T06:26:13;12.10;99.90
21648;DHT22;10985;54.182;7.890;2023-05-10T06:28:39;12.10;99.90
21648;DHT22;10985;54.182;7.890;2023-05-10T06:31:05;12.00;99.90
21648;DHT22;10985;54.182;7.890;2023-05-10T06:33:32;12.00;99.90
21648;DHT22;10985;54.182;7.890;2023-05-10T06:35:58;12.00;99.90
21648;DHT22;10985;54.182;7.890;2023-05-10T06:38:23;12.00;99.90
21648;DHT22;10985;54.182;7.890;2023-05-10T06:40:49;12.00;99.90
21648;DHT22;10985;54.182;7.890;2023-05-10T06:43:14;12.00;99.90
21648;DHT22;10985;54.182;7.890;2023-05-10T06:45:40;12.00;99.90
21648;DHT22;10985;54.182;7.890;2023-05-10T06:48:06;12.00;99.90
21648;DHT22;10985;54.182;7.890;2023-05-10T06:50:32;12.00;99.90
21648;DHT22;10985;54.182;7.890;2023-05-10T06:52:58;12.00;99.90
21648;DHT22;10985;54.182;7.890;2023-05-10T06:55:24;12.00;99.90
21648;DHT22;10985;54.182;7.890;2023-05-10T06:57:50;11.90;99.90
21648;DHT22;10985;54.182;7.890;2023-05-10T07:00:16;11.90;99.90
21648;DHT22;10985;54.182;7.890;2023-05-10T07:02:42;11.90;99.90
21648;DHT22;10985;54.182;7.890;2023-05-10T07:05:08;11.90;99.90
21648;DHT22;10985;54.182;7.890;2023-05-10T07:07:33;12.00;99.90
21648;DHT22;10985;54.182;7.890;2023-05-10T07:09:59;12.00;99.90
21648;DHT22;10985;54.182;7.890;2023-05-10T07:12:25;12.00;99.90
21648;DHT22;10985;54.182;7.890;2023-05-10T07:14:51;12.00;99.90
21648;DHT22;10985;54.182;7.890;2023-05-10T07:17:17;12.00;99.90
21648;DHT22;10985;54.182;7.890;2023-05-10T07:19:43;12.00;99.90
21648;DHT22;10985;54.182;7.890;2023-05-10T07:22:08;12.00;99.90
21648;DHT22;10985;54.182;7.890;2023-05-10T07:24:34;12.00;99.90
21648;DHT22;10985;54.182;7.890;2023-05-10T07:26:59;12.10;99.90
21648;DHT22;10985;54.182;7.890;2023-05-10T07:29:25;12.10;99.90
21648;DHT22;10985;54.182;7.890;2023-05-10T07:31:51;12.20;99.90
21648;DHT22;10985;54.182;7.890;2023-05-10T07:34:17;12.20;99.90
21648;DHT22;10985;54.182;7.890;2023-05-10T07:36:42;12.20;99.90
21648;DHT22;10985;54.182;7.890;2023-05-10T07:39:08;12.20;99.90
21648;DHT22;10985;54.182;7.890;2023-05-10T07:41:33;12.20;99.90
21648;DHT22;10985;54.182;7.890;2023-05-10T07:43:59;12.30;99.90
21648;DHT22;10985;54.182;7.890;2023-05-10T07:46:24;12.30;99.90
21648;DHT22;10985;54.182;7.890;2023-05-10T07:48:50;12.30;99.90
21648;DHT22;10985;54.182;7.890;2023-05-10T07:51:15;12.30;99.90
21648;DHT22;10985;54.182;7.890;2023-05-10T07:53:41;12.30;99.90
21648;DHT22;10985;54.182;7.890;2023-05-10T07:58:48;12.30;99.90
21648;DHT22;10985;54.182;7.890;2023-05-10T08:01:14;12.30;99.90
21648;DHT22;10985;54.182;7.890;2023-05-10T08:03:39;12.30;99.90
21648;DHT22;10985;54.182;7.890;2023-05-10T08:06:05;12.30;99.90
21648;DHT22;10985;54.182;7.890;2023-05-10T08:08:31;12.30;99.90
21648;DHT22;10985;54.182;7.890;2023-05-10T08:10:56;12.40;99.90
21648;DHT22;10985;54.182;7.890;2023-05-10T08:13:22;12.40;99.90
21648;DHT22;10985;54.182;7.890;2023-05-10T08:15:47;12.40;99.90
21648;DHT22;10985;54.182;7.890;2023-05-10T08:18:13;12.50;99.90
21648;DHT22;10985;54.182;7.890;2023-05-10T08:20:38;12.50;99.90
21648;DHT22;10985;54.182;7.890;2023-05-10T08:23:04;12.50;99.90
21648;DHT22;10985;54.182;7.890;2023-05-10T08:25:31;12.50;99.90
21648;DHT22;10985;54.182;7.890;2023-05-10T08:27:56;12.60;99.90
21648;DHT22;10985;54.182;7.890;2023-05-10T08:30:22;12.60;99.90
21648;DHT22;10985;54.182;7.890;2023-05-10T08:32:47;12.60;99.90
21648;DHT22;10985;54.182;7.890;2023-05-10T08:35:13;12.70;99.90
21648;DHT22;10985;54.182;7.890;2023-05-10T08:37:39;12.70;99.90
21648;DHT22;10985;54.182;7.890;2023-05-10T08:40:05;12.80;99.90
21648;DHT22;10985;54.182;7.890;2023-05-10T08:42:31;12.80;99.90
21648;DHT22;10985;54.182;7.890;2023-05-10T08:45:00;12.90;99.90
21648;DHT22;10985;54.182;7.890;2023-05-10T08:47:27;12.90;99.90
21648;DHT22;10985;54.182;7.890;2023-05-10T08:49:54;13.00;99.90
21648;DHT22;10985;54.182;7.890;2023-05-10T08:52:21;13.00;99.90
21648;DHT22;10985;54.182;7.890;2023-05-10T08:54:47;13.00;99.90
21648;DHT22;10985;54.182;7.890;2023-05-10T08:57:13;13.10;99.90
21648;DHT22;10985;54.182;7.890;2023-05-10T08:59:39;13.10;99.90
21648;DHT22;10985;54.182;7.890;2023-05-10T09:02:05;13.10;99.90
21648;DHT22;10985;54.182;7.890;2023-05-10T09:04:31;13.20;99.90
21648;DHT22;10985;54.182;7.890;2023-05-10T09:06:57;13.10;99.90
21648;DHT22;10985;54.182;7.890;2023-05-10T09:09:24;13.10;99.90
21648;DHT22;10985;54.182;7.890;2023-05-10T09:11:51;13.10;99.90
21648;DHT22;10985;54.182;7.890;2023-05-10T09:14:17;13.10;99.90
21648;DHT22;10985;54.182;7.890;2023-05-10T09:16:43;13.10;99.90
21648;DHT22;10985;54.182;7.890;2023-05-10T09:19:09;13.10;99.90
21648;DHT22;10985;54.182;7.890;2023-05-10T09:21:35;13.00;99.90
21648;DHT22;10985;54.182;7.890;2023-05-10T09:24:06;13.00;99.90
21648;DHT22;10985;54.182;7.890;2023-05-10T09:26:32;13.10;99.90
21648;DHT22;10985;54.182;7.890;2023-05-10T09:28:59;13.00;99.90
21648;DHT22;10985;54.182;7.890;2023-05-10T09:31:51;13.00;99.90
21648;DHT22;10985;54.182;7.890;2023-05-10T09:34:19;12.90;99.90
21648;DHT22;10985;54.182;7.890;2023-05-10T09:36:56;12.90;99.90
21648;DHT22;10985;54.182;7.890;2023-05-10T09:39:48;12.90;99.90
21648;DHT22;10985;54.182;7.890;2023-05-10T09:42:19;13.00;99.90
21648;DHT22;10985;54.182;7.890;2023-05-10T09:44:45;13.00;99.90
21648;DHT22;10985;54.182;7.890;2023-05-10T09:47:17;13.00;99.90
21648;DHT22;10985;54.182;7.890;2023-05-10T09:49:43;13.00;99.90
21648;DHT22;10985;54.182;7.890;2023-05-10T09:52:08;13.00;99.90
21648;DHT22;10985;54.182;7.890;2023-05-10T09:54:34;13.10;99.90
21648;DHT22;10985;54.182;7.890;2023-05-10T09:57:00;13.20;99.90
21648;DHT22;10985;54.182;7.890;2023-05-10T09:59:27;13.20;99.90
21648;DHT22;10985;54.182;7.890;2023-05-10T10:01:59;13.30;99.90
21648;DHT22;10985;54.182;7.890;2023-05-10T10:04:26;13.30;99.90
21648;DHT22;10985;54.182;7.890;2023-05-10T10:07:03;13.40;99.90
21648;DHT22;10985;54.182;7.890;2023-05-10T10:09:29;13.50;99.90
21648;DHT22;10985;54.182;7.890;2023-05-10T10:11:54;13.50;99.90
21648;DHT22;10985;54.182;7.890;2023-05-10T10:14:24;13.50;99.90
21648;DHT22;10985;54.182;7.890;2023-05-10T10:16:51;13.50;99.90
21648;DHT22;10985;54.182;7.890;2023-05-10T10:19:18;13.60;99.90
21648;DHT22;10985;54.182;7.890;2023-05-10T10:21:44;13.60;99.90
21648;DHT22;10985;54.182;7.890;2023-05-10T10:24:10;13.60;99.90
21648;DHT22;10985;54.182;7.890;2023-05-10T10:26:36;13.60;99.90
21648;DHT22;10985;54.182;7.890;2023-05-10T10:29:31;13.60;99.90
21648;DHT22;10985;54.182;7.890;2023-05-10T10:32:09;13.50;99.90
21648;DHT22;10985;54.182;7.890;2023-05-10T10:34:36;13.60;99.90
21648;DHT22;10985;54.182;7.890;2023-05-10T10:37:05;13.50;99.90
21648;DHT22;10985;54.182;7.890;2023-05-10T10:39:31;13.60;99.90
21648;DHT22;10985;54.182;7.890;2023-05-10T10:41:58;13.60;99.90
21648;DHT22;10985;54.182;7.890;2023-05-10T10:47:07;13.60;99.90
21648;DHT22;10985;54.182;7.890;2023-05-10T10:52:26;13.60;99.90
21648;DHT22;10985;54.182;7.890;2023-05-10T10:55:14;13.60;99.90
21648;DHT22;10985;54.182;7.890;2023-05-10T10:57:50;13.70;99.90
21648;DHT22;10985;54.182;7.890;2023-05-10T11:02:47;13.60;99.90
21648;DHT22;10985;54.182;7.890;2023-05-10T11:07:54;13.60;99.90
21648;DHT22;10985;54.182;7.890;2023-05-10T11:10:21;13.70;99.90
21648;DHT22;10985;54.182;7.890;2023-05-10T11:12:59;13.70;99.90
21648;DHT22;10985;54.182;7.890;2023-05-10T11:15:39;13.70;99.90
21648;DHT22;10985;54.182;7.890;2023-05-10T11:18:24;13.70;99.90
21648;DHT22;10985;54.182;7.890;2023-05-10T11:21:09;13.60;99.90
21648;DHT22;10985;54.182;7.890;2023-05-10T11:23:51;13.70;99.90
21648;DHT22;10985;54.182;7.890;2023-05-10T11:26:18;13.80;99.90
21648;DHT22;10985;54.182;7.890;2023-05-10T11:28:47;13.80;99.90
21648;DHT22;10985;54.182;7.890;2023-05-10T11:31:14;13.80;99.90
21648;DHT22;10985;54.182;7.890;2023-05-10T11:36:20;13.80;99.90
21648;DHT22;10985;54.182;7.890;2023-05-10T11:38:47;13.80;99.90
21648;DHT22;10985;54.182;7.890;2023-05-10T11:41:13;13.80;99.90
21648;DHT22;10985;54.182;7.890;2023-05-10T11:43:39;13.90;99.90
21648;DHT22;10985;54.182;7.890;2023-05-10T11:46:10;13.90;99.90
21648;DHT22;10985;54.182;7.890;2023-05-10T11:48:41;13.80;99.90
21648;DHT22;10985;54.182;7.890;2023-05-10T11:51:10;13.90;99.90
21648;DHT22;10985;54.182;7.890;2023-05-10T11:53:36;14.00;99.90
21648;DHT22;10985;54.182;7.890;2023-05-10T11:56:08;14.00;99.90
21648;DHT22;10985;54.182;7.890;2023-05-10T11:58:35;13.90;99.90
21648;DHT22;10985;54.182;7.890;2023-05-10T12:01:02;14.00;99.90
21648;DHT22;10985;54.182;7.890;2023-05-10T12:03:28;13.90;99.90
21648;DHT22;10985;54.182;7.890;2023-05-10T12:05:55;13.90;99.90
21648;DHT22;10985;54.182;7.890;2023-05-10T12:08:23;13.90;99.90
21648;DHT22;10985;54.182;7.890;2023-05-10T12:10:49;13.90;99.90
21648;DHT22;10985;54.182;7.890;2023-05-10T12:13:15;13.80;99.90
21648;DHT22;10985;54.182;7.890;2023-05-10T12:15:41;13.80;99.90
21648;DHT22;10985;54.182;7.890;2023-05-10T12:18:09;13.70;99.90
21648;DHT22;10985;54.182;7.890;2023-05-10T12:20:35;13.70;99.90
21648;DHT22;10985;54.182;7.890;2023-05-10T12:23:01;13.70;99.90
21648;DHT22;10985;54.182;7.890;2023-05-10T12:25:33;13.70;99.90
21648;DHT22;10985;54.182;7.890;2023-05-10T12:28:00;13.60;99.90
21648;DHT22;10985;54.182;7.890;2023-05-10T12:30:28;13.60;99.90
21648;DHT22;10985;54.182;7.890;2023-05-10T12:33:00;13.60;99.90
21648;DHT22;10985;54.182;7.890;2023-05-10T12:35:27;13.50;99.90
21648;DHT22;10985;54.182;7.890;2023-05-10T12:37:55;13.50;99.90
21648;DHT22;10985;54.182;7.890;2023-05-10T12:40:20;13.40;99.90
21648;DHT22;10985;54.182;7.890;2023-05-10T12:42:46;13.40;99.90
21648;DHT22;10985;54.182;7.890;2023-05-10T12:45:12;13.40;99.90
21648;DHT22;10985;54.182;7.890;2023-05-10T12:47:38;13.40;99.90
21648;DHT22;10985;54.182;7.890;2023-05-10T12:50:04;13.30;99.90
21648;DHT22;10985;54.182;7.890;2023-05-10T12:52:31;13.40;99.90
21648;DHT22;10985;54.182;7.890;2023-05-10T12:54:58;13.30;99.90
21648;DHT22;10985;54.182;7.890;2023-05-10T12:57:24;13.30;99.90
21648;DHT22;10985;54.182;7.890;2023-05-10T12:59:50;13.30;99.90
21648;DHT22;10985;54.182;7.890;2023-05-10T13:02:16;13.30;99.90
21648;DHT22;10985;54.182;7.890;2023-05-10T13:04:47;13.30;99.90
21648;DHT22;10985;54.182;7.890;2023-05-10T13:07:12;13.20;99.90
21648;DHT22;10985;54.182;7.890;2023-05-10T13:09:38;13.20;99.90
21648;DHT22;10985;54.182;7.890;2023-05-10T13:12:04;13.20;99.90
21648;DHT22;10985;54.182;7.890;2023-05-10T13:14:29;13.20;99.90
21648;DHT22;10985;54.182;7.890;2023-05-10T13:16:55;13.20;99.90
21648;DHT22;10985;54.182;7.890;2023-05-10T13:19:20;13.20;99.90
21648;DHT22;10985;54.182;7.890;2023-05-10T13:21:46;13.20;99.90
21648;DHT22;10985;54.182;7.890;2023-05-10T13:24:12;13.30;99.90
21648;DHT22;10985;54.182;7.890;2023-05-10T13:26:42;13.20;99.90
21648;DHT22;10985;54.182;7.890;2023-05-10T13:29:08;13.20;99.90
21648;DHT22;10985;54.182;7.890;2023-05-10T13:31:34;13.20;99.90
21648;DHT22;10985;54.182;7.890;2023-05-10T13:34:00;13.20;99.90
21648;DHT22;10985;54.182;7.890;2023-05-10T13:36:25;13.30;99.90
21648;DHT22;10985;54.182;7.890;2023-05-10T13:38:51;13.20;99.90
21648;DHT22;10985;54.182;7.890;2023-05-10T13:41:17;13.30;99.90
21648;DHT22;10985;54.182;7.890;2023-05-10T13:43:42;13.30;99.90
21648;DHT22;10985;54.182;7.890;2023-05-10T13:46:08;13.30;99.90
21648;DHT22;10985;54.182;7.890;2023-05-10T13:48:34;13.30;99.90
21648;DHT22;10985;54.182;7.890;2023-05-10T13:50:59;13.30;99.90
21648;DHT22;10985;54.182;7.890;2023-05-10T13:53:25;13.30;99.90
21648;DHT22;10985;54.182;7.890;2023-05-10T13:55:50;13.20;99.90
21648;DHT22;10985;54.182;7.890;2023-05-10T13:58:16;13.20;99.90
21648;DHT22;10985;54.182;7.890;2023-05-10T14:00:41;13.30;99.90
21648;DHT22;10985;54.182;7.890;2023-05-10T14:03:07;13.20;99.90
21648;DHT22;10985;54.182;7.890;2023-05-10T14:05:34;13.20;99.90
21648;DHT22;10985;54.182;7.890;2023-05-10T14:07:59;13.30;99.90
21648;DHT22;10985;54.182;7.890;2023-05-10T14:10:25;13.20;99.90
21648;DHT22;10985;54.182;7.890;2023-05-10T14:12:51;13.20;99.90
21648;DHT22;10985;54.182;7.890;2023-05-10T14:15:16;13.20;99.90
21648;DHT22;10985;54.182;7.890;2023-05-10T14:17:42;13.20;99.90
21648;DHT22;10985;54.182;7.890;2023-05-10T14:20:08;13.20;99.90
21648;DHT22;10985;54.182;7.890;2023-05-10T14:22:34;13.30;99.90
21648;DHT22;10985;54.182;7.890;2023-05-10T14:24:59;13.30;99.90
21648;DHT22;10985;54.182;7.890;2023-05-10T14:27:25;13.40;99.90
21648;DHT22;10985;54.182;7.890;2023-05-10T14:29:51;13.40;99.90
21648;DHT22;10985;54.182;7.890;2023-05-10T14:32:17;13.50;99.90
21648;DHT22;10985;54.182;7.890;2023-05-10T14:34:42;13.60;99.90
21648;DHT22;10985;54.182;7.890;2023-05-10T14:37:10;13.60;99.90
21648;DHT22;10985;54.182;7.890;2023-05-10T14:39:36;13.60;99.90
21648;DHT22;10985;54.182;7.890;2023-05-10T14:42:03;13.60;99.90
21648;DHT22;10985;54.182;7.890;2023-05-10T14:44:28;13.70;99.90
21648;DHT22;10985;54.182;7.890;2023-05-10T14:46:54;13.70;99.90
21648;DHT22;10985;54.182;7.890;2023-05-10T14:49:20;13.70;99.90
21648;DHT22;10985;54.182;7.890;2023-05-10T14:51:48;13.70;99.90
21648;DHT22;10985;54.182;7.890;2023-05-10T14:54:13;13.60;99.90
21648;DHT22;10985;54.182;7.890;2023-05-10T14:56:39;13.70;99.90
21648;DHT22;10985;54.182;7.890;2023-05-10T14:59:06;13.70;99.90
21648;DHT22;10985;54.182;7.890;2023-05-10T15:01:32;13.60;99.90
21648;DHT22;10985;54.182;7.890;2023-05-10T15:04:00;13.60;99.90
21648;DHT22;10985;54.182;7.890;2023-05-10T15:06:35;13.60;99.90
21648;DHT22;10985;54.182;7.890;2023-05-10T15:09:01;13.60;99.90
21648;DHT22;10985;54.182;7.890;2023-05-10T15:11:28;13.60;99.90
21648;DHT22;10985;54.182;7.890;2023-05-10T15:13:54;13.60;99.90
21648;DHT22;10985;54.182;7.890;2023-05-10T15:16:20;13.60;99.90
21648;DHT22;10985;54.182;7.890;2023-05-10T15:18:45;13.50;99.90
21648;DHT22;10985;54.182;7.890;2023-05-10T15:21:11;13.60;99.90
21648;DHT22;10985;54.182;7.890;2023-05-10T15:23:37;13.50;99.90
21648;DHT22;10985;54.182;7.890;2023-05-10T15:26:02;13.50;99.90
21648;DHT22;10985;54.182;7.890;2023-05-10T15:28:28;13.60;99.90
21648;DHT22;10985;54.182;7.890;2023-05-10T15:30:54;13.60;99.90
21648;DHT22;10985;54.182;7.890;2023-05-10T15:33:20;13.60;99.90
21648;DHT22;10985;54.182;7.890;2023-05-10T15:35:45;13.60;99.90
21648;DHT22;10985;54.182;7.890;2023-05-10T15:38:10;13.70;99.90
21648;DHT22;10985;54.182;7.890;2023-05-10T15:40:36;13.70;99.90
21648;DHT22;10985;54.182;7.890;2023-05-10T15:43:02;13.80;99.90
21648;DHT22;10985;54.182;7.890;2023-05-10T15:45:27;13.80;99.90
21648;DHT22;10985;54.182;7.890;2023-05-10T15:47:53;13.70;99.90
21648;DHT22;10985;54.182;7.890;2023-05-10T15:50:18;13.80;99.90
21648;DHT22;10985;54.182;7.890;2023-05-10T15:52:44;13.70;99.90
21648;DHT22;10985;54.182;7.890;2023-05-10T15:55:09;13.80;99.90
21648;DHT22;10985;54.182;7.890;2023-05-10T15:57:40;13.80;99.90